createdAt,value
2022-11-08T00:01:23.968Z,100759.09
2022-11-08T00:03:53.106Z,100755.84
2022-11-08T00:06:38.386Z,100752.78
2022-11-08T00:09:23.879Z,100755.53
2022-11-08T00:12:09.240Z,100752.50
2022-11-08T00:14:37.097Z,100746.97
2022-11-08T00:17:04.920Z,100747.38
2022-11-08T00:19:34.073Z,100751.19
2022-11-08T00:22:01.826Z,100750.56
2022-11-08T00:24:29.647Z,100750.31
2022-11-08T00:26:57.400Z,100747.84
2022-11-08T00:29:25.273Z,100755.88
2022-11-08T00:31:53.030Z,100750.03
2022-11-08T00:34:20.824Z,100741.75
2022-11-08T00:36:50.043Z,100738.09
2022-11-08T00:39:17.798Z,100744.50
2022-11-08T00:41:45.551Z,100741.03
2022-11-08T00:44:13.666Z,100727.06
2022-11-08T00:46:41.548Z,100728.63
2022-11-08T00:49:09.468Z,100731.78
2022-11-08T00:51:38.131Z,100731.06
2022-11-08T00:54:08.346Z,100731.41
2022-11-08T00:56:36.074Z,100736.84
2022-11-08T00:59:03.820Z,100743.06
2022-11-08T01:01:31.995Z,100742.44
2022-11-08T01:04:00.134Z,100730.34
2022-11-08T01:06:27.893Z,100737.56
2022-11-08T01:08:56.729Z,100736.53
2022-11-08T01:11:27.117Z,100731.66
2022-11-08T01:13:58.260Z,100727.59
2022-11-08T01:16:27.781Z,100731.63
2022-11-08T01:18:57.237Z,100732.41
2022-11-08T01:21:25.566Z,100720.75
2022-11-08T01:23:54.192Z,100703.34
2022-11-08T01:26:25.489Z,100708.25
2022-11-08T01:28:53.373Z,100706.19
2022-11-08T01:31:23.138Z,100707.38
2022-11-08T01:33:52.013Z,100707.38
2022-11-08T01:36:21.835Z,100703.53
2022-11-08T01:38:49.487Z,100699.66
2022-11-08T01:41:19.173Z,100682.19
2022-11-08T01:43:49.243Z,100683.53
2022-11-08T01:46:39.141Z,100679.06
2022-11-08T01:49:35.456Z,100675.56
2022-11-08T01:52:08.989Z,100677.94
2022-11-08T01:54:42.790Z,100675.16
2022-11-08T01:57:14.571Z,100668.47
2022-11-08T01:59:45.714Z,100655.78
2022-11-08T02:02:14.341Z,100654.97
2022-11-08T02:04:44.210Z,100650.75
2022-11-08T02:07:13.999Z,100649.56
2022-11-08T02:09:44.531Z,100652.53
2022-11-08T02:12:14.411Z,100625.06
2022-11-08T02:14:43.341Z,100646.69
2022-11-08T02:17:11.736Z,100647.94
2022-11-08T02:19:42.914Z,100633.53
2022-11-08T02:22:17.970Z,100637.13
2022-11-08T02:24:47.370Z,100643.34
2022-11-08T02:27:16.063Z,100637.50
2022-11-08T02:29:43.735Z,100645.97
2022-11-08T02:32:12.540Z,100640.13
2022-11-08T02:34:43.209Z,100634.25
2022-11-08T02:37:12.196Z,100631.47
2022-11-08T02:39:39.718Z,100627.03
2022-11-08T02:42:08.747Z,100614.16
2022-11-08T02:44:36.313Z,100619.84
2022-11-08T02:47:03.866Z,100613.53
2022-11-08T02:49:31.450Z,100619.56
2022-11-08T02:51:59.086Z,100613.72
2022-11-08T02:54:26.640Z,100612.06
2022-11-08T02:56:54.202Z,100614.13
2022-11-08T02:59:23.108Z,100607.28
2022-11-08T03:01:50.871Z,100574.31
2022-11-08T03:04:18.594Z,100614.94
2022-11-08T03:06:46.160Z,100602.16
2022-11-08T03:09:13.839Z,100608.38
2022-11-08T03:11:41.457Z,100593.09
2022-11-08T03:14:09.048Z,100593.00
2022-11-08T03:16:37.999Z,100583.56
2022-11-08T03:19:05.601Z,100592.19
2022-11-08T03:21:35.320Z,100578.97
2022-11-08T03:24:02.883Z,100575.91
2022-11-08T03:26:30.426Z,100564.09
2022-11-08T03:28:57.989Z,100559.63
2022-11-08T03:31:25.546Z,100564.41
2022-11-08T03:33:54.556Z,100551.53
2022-11-08T03:36:22.107Z,100547.94
2022-11-08T03:38:50.741Z,100532.09
2022-11-08T03:41:18.295Z,100526.78
2022-11-08T03:43:45.832Z,100526.56
2022-11-08T03:46:13.410Z,100524.56
2022-11-08T03:48:40.953Z,100516.47
2022-11-08T03:51:09.917Z,100518.09
2022-11-08T03:53:37.494Z,100507.38
2022-11-08T03:56:05.349Z,100501.16
2022-11-08T03:58:32.976Z,100495.94
2022-11-08T04:01:04.902Z,100486.50
2022-11-08T04:03:32.952Z,100475.19
2022-11-08T04:06:01.361Z,100483.66
2022-11-08T04:08:30.611Z,100480.88
2022-11-08T04:11:18.890Z,100461.41
2022-11-08T04:14:04.077Z,100468.22
2022-11-08T04:16:32.882Z,100458.38
2022-11-08T04:19:19.096Z,100461.22
2022-11-08T04:21:48.953Z,100462.66
2022-11-08T04:24:18.423Z,100451.22
2022-11-08T04:26:46.293Z,100460.88
2022-11-08T04:29:14.057Z,100462.72
2022-11-08T04:31:41.705Z,100462.75
2022-11-08T04:34:09.407Z,100464.00
2022-11-08T04:36:37.004Z,100459.59
2022-11-08T04:39:04.991Z,100458.59
2022-11-08T04:41:34.025Z,100447.41
2022-11-08T04:44:01.671Z,100449.44
2022-11-08T04:46:30.227Z,100452.44
2022-11-08T04:48:59.458Z,100418.75
2022-11-08T04:51:28.657Z,100448.81
2022-11-08T04:53:57.543Z,100443.53
2022-11-08T04:56:27.093Z,100432.53
2022-11-08T04:58:57.919Z,100424.88
2022-11-08T05:01:27.143Z,100428.31
2022-11-08T05:03:55.704Z,100421.47
2022-11-08T05:06:25.828Z,100415.22
2022-11-08T05:08:55.221Z,100421.44
2022-11-08T05:11:24.956Z,100405.31
2022-11-08T05:13:53.405Z,100420.00
2022-11-08T05:16:23.966Z,100408.69
2022-11-08T05:18:51.569Z,100403.97
2022-11-08T05:21:38.732Z,100406.31
2022-11-08T05:24:08.332Z,100402.47
2022-11-08T05:26:37.262Z,100396.88
2022-11-08T05:29:04.885Z,100392.97
2022-11-08T05:31:34.145Z,100401.28
2022-11-08T05:34:02.021Z,100387.31
2022-11-08T05:36:29.903Z,100396.75
2022-11-08T05:38:58.090Z,100392.53
2022-11-08T05:41:27.095Z,100383.78
2022-11-08T05:43:56.468Z,100383.25
2022-11-08T05:46:25.182Z,100391.28
2022-11-08T05:48:54.415Z,100377.34
2022-11-08T05:51:22.575Z,100379.69
2022-11-08T05:53:50.219Z,100379.66
2022-11-08T05:56:18.961Z,100379.06
2022-11-08T05:58:46.467Z,100366.19
2022-11-08T06:01:15.939Z,100371.38
2022-11-08T06:03:44.105Z,100377.97
2022-11-08T06:06:15.792Z,100378.78
2022-11-08T06:08:48.983Z,100369.16
2022-11-08T06:11:21.374Z,100372.13
2022-11-08T06:13:48.997Z,100372.75
2022-11-08T06:16:18.553Z,100370.75
2022-11-08T06:18:46.960Z,100364.91
2022-11-08T06:21:17.980Z,100358.84
2022-11-08T06:23:45.573Z,100355.00
2022-11-08T06:26:13.494Z,100361.41
2022-11-08T06:28:41.105Z,100354.38
2022-11-08T06:31:08.761Z,100358.22
2022-11-08T06:33:36.758Z,100354.63
2022-11-08T06:36:04.577Z,100353.28
2022-11-08T06:38:33.579Z,100361.38
2022-11-08T06:41:01.862Z,100369.78
2022-11-08T06:43:29.566Z,100352.66
2022-11-08T06:46:01.143Z,100359.22
2022-11-08T06:48:33.995Z,100362.28
2022-11-08T06:51:03.296Z,100359.84
2022-11-08T06:53:30.889Z,100357.06
2022-11-08T06:56:00.963Z,100357.63
2022-11-08T06:58:28.561Z,100353.00
2022-11-08T07:00:56.118Z,100362.47
2022-11-08T07:03:23.943Z,100354.63
2022-11-08T07:05:51.538Z,100361.03
2022-11-08T07:08:23.705Z,100355.81
2022-11-08T07:10:51.725Z,100371.53
2022-11-08T07:13:21.651Z,100353.81
2022-11-08T07:15:49.414Z,100351.22
2022-11-08T07:18:19.385Z,100351.03
2022-11-08T07:20:47.406Z,100344.56
2022-11-08T07:23:15.294Z,100336.50
2022-11-08T07:25:43.227Z,100348.59
2022-11-08T07:28:20.320Z,100354.44
2022-11-08T07:30:49.772Z,100331.13
2022-11-08T07:33:18.095Z,100331.78
2022-11-08T07:35:48.082Z,100324.78
2022-11-08T07:38:15.884Z,100318.56
2022-11-08T07:40:43.970Z,100337.06
2022-11-08T07:43:22.815Z,100339.78
2022-11-08T07:45:56.638Z,100337.34
2022-11-08T07:48:24.665Z,100332.06
2022-11-08T07:50:52.637Z,100353.81
2022-11-08T07:53:20.797Z,100350.84
2022-11-08T07:55:48.980Z,100345.41
2022-11-08T07:58:17.376Z,100364.09
2022-11-08T08:00:46.433Z,100354.66
2022-11-08T08:03:15.595Z,100362.91
2022-11-08T08:05:45.192Z,100359.31
2022-11-08T08:08:14.466Z,100361.13
2022-11-08T08:10:42.214Z,100363.72
2022-11-08T08:13:10.119Z,100363.97
2022-11-08T08:15:38.100Z,100357.97
2022-11-08T08:18:07.065Z,100355.34
2022-11-08T08:20:36.500Z,100355.16
2022-11-08T08:23:04.031Z,100367.25
2022-11-08T08:25:31.980Z,100360.22
2022-11-08T08:28:01.771Z,100371.53
2022-11-08T08:30:30.968Z,100368.72
2022-11-08T08:33:28.361Z,100373.16
2022-11-08T08:35:56.337Z,100372.59
2022-11-08T08:38:23.970Z,100363.56
2022-11-08T08:40:52.234Z,100362.16
2022-11-08T08:43:20.565Z,100374.84
2022-11-08T08:45:48.780Z,100362.81
2022-11-08T08:48:16.440Z,100356.38
2022-11-08T08:50:44.091Z,100349.97
2022-11-08T08:53:13.682Z,100348.97
2022-11-08T08:55:41.717Z,100343.34
2022-11-08T08:58:09.705Z,100335.16
2022-11-08T09:03:25.172Z,100347.44
2022-11-08T09:05:52.735Z,100346.81
2022-11-08T09:08:21.690Z,100338.38
2022-11-08T09:10:54.200Z,100344.41
2022-11-08T09:13:21.757Z,100336.38
2022-11-08T09:15:49.350Z,100350.06
2022-11-08T09:18:17.557Z,100334.56
2022-11-08T09:20:45.446Z,100333.56
2022-11-08T09:23:13.353Z,100328.53
2022-11-08T09:25:42.271Z,100331.19
2022-11-08T09:28:10.311Z,100324.94
2022-11-08T09:30:38.028Z,100327.56
2022-11-08T09:33:05.990Z,100332.00
2022-11-08T09:35:34.108Z,100331.19
2022-11-08T09:38:01.731Z,100329.38
2022-11-08T09:40:33.560Z,100329.38
2022-11-08T09:43:20.818Z,100338.63
2022-11-08T09:45:50.673Z,100337.84
2022-11-08T09:48:24.022Z,100345.50
2022-11-08T09:50:53.633Z,100345.06
2022-11-08T09:53:34.668Z,100342.25
2022-11-08T09:56:08.173Z,100341.66
2022-11-08T09:58:41.030Z,100341.03
2022-11-08T10:01:11.715Z,100334.94
2022-11-08T10:03:39.619Z,100349.25
2022-11-08T10:06:27.194Z,100348.44
2022-11-08T10:09:06.828Z,100338.38
2022-11-08T10:11:54.765Z,100329.09
2022-11-08T10:14:45.315Z,100326.69
2022-11-08T10:17:35.772Z,100332.88
2022-11-08T10:20:12.255Z,100341.75
2022-11-08T10:22:47.661Z,100333.03
2022-11-08T10:25:21.046Z,100338.13
2022-11-08T10:27:48.602Z,100351.22
2022-11-08T10:30:21.428Z,100356.28
2022-11-08T10:32:53.893Z,100346.78
2022-11-08T10:35:28.143Z,100347.81
2022-11-08T10:37:57.108Z,100354.66
2022-11-08T10:40:34.751Z,100353.66
2022-11-08T10:43:09.819Z,100350.03
2022-11-08T10:45:38.736Z,100342.97
2022-11-08T10:48:07.223Z,100330.06
2022-11-08T10:50:44.049Z,100334.69
2022-11-08T10:53:18.890Z,100347.59
2022-11-08T10:55:51.756Z,100345.63
2022-11-08T10:58:37.225Z,100335.31
2022-11-08T11:01:14.409Z,100346.78
2022-11-08T11:03:42.623Z,100335.44
2022-11-08T11:06:23.813Z,100329.34
2022-11-08T11:08:55.089Z,100338.00
2022-11-08T11:11:26.383Z,100337.00
2022-11-08T11:14:10.002Z,100341.59
2022-11-08T11:16:54.075Z,100325.84
2022-11-08T11:19:22.010Z,100328.84
2022-11-08T11:21:56.291Z,100329.47
2022-11-08T11:24:24.250Z,100313.13
2022-11-08T11:27:02.912Z,100321.75
2022-11-08T11:29:31.552Z,100330.22
2022-11-08T11:32:20.274Z,100312.94
2022-11-08T11:34:55.939Z,100317.75
2022-11-08T11:37:30.053Z,100321.16
2022-11-08T11:40:12.940Z,100326.13
2022-11-08T11:42:48.735Z,100332.78
2022-11-08T11:45:25.346Z,100321.91
2022-11-08T11:47:57.077Z,100328.66
2022-11-08T11:50:35.978Z,100329.50
2022-11-08T11:53:07.624Z,100332.41
2022-11-08T11:55:52.422Z,100326.84
2022-11-08T11:58:39.076Z,100325.97
2022-11-08T12:01:16.738Z,100319.81
2022-11-08T12:04:01.643Z,100321.59
2022-11-08T12:06:40.097Z,100293.63
2022-11-08T12:09:22.008Z,100312.63
2022-11-08T12:11:59.785Z,100302.34
2022-11-08T12:14:44.326Z,100316.94
2022-11-08T12:17:35.885Z,100311.31
2022-11-08T12:20:26.585Z,100308.41
2022-11-08T12:23:11.047Z,100315.66
2022-11-08T12:40:03.936Z,100301.19
2022-11-08T12:42:53.145Z,100304.75
2022-11-08T12:45:30.065Z,100306.03
2022-11-08T12:48:05.027Z,100307.13
2022-11-08T12:50:38.744Z,100313.69
2022-11-08T12:53:30.282Z,100308.00
2022-11-08T12:55:59.774Z,100310.91
2022-11-08T12:58:34.738Z,100296.75
2022-11-08T13:01:07.193Z,100307.00
2022-11-08T13:04:05.802Z,100301.28
2022-11-08T13:06:41.265Z,100303.09
2022-11-08T13:09:18.731Z,100304.84
2022-11-08T13:11:55.309Z,100303.69
2022-11-08T13:14:24.637Z,100309.38
2022-11-08T13:17:22.745Z,100267.31
2022-11-08T13:20:03.432Z,100299.50
2022-11-08T13:22:47.727Z,100295.59
2022-11-08T13:25:43.441Z,100301.91
2022-11-08T13:28:38.403Z,100300.03
2022-11-08T13:31:17.054Z,100299.38
2022-11-08T13:33:48.402Z,100300.91
2022-11-08T13:36:28.392Z,100302.72
2022-11-08T13:39:11.905Z,100285.66
2022-11-08T13:42:02.647Z,100291.84
2022-11-08T13:45:00.717Z,100277.75
2022-11-08T13:47:53.244Z,100286.03
2022-11-08T13:50:46.224Z,100289.72
2022-11-08T13:53:45.725Z,100287.88
2022-11-08T13:56:45.658Z,100289.38
2022-11-08T13:59:52.210Z,100286.16
2022-11-08T14:02:37.930Z,100267.03
2022-11-08T14:05:27.711Z,100289.22
2022-11-08T14:08:16.133Z,100287.63
2022-11-08T14:11:07.599Z,100297.53
2022-11-08T14:13:42.252Z,100294.75
2022-11-08T14:16:17.354Z,100292.50
2022-11-08T14:18:47.100Z,100291.09
2022-11-08T14:21:18.656Z,100293.34
2022-11-08T14:23:49.070Z,100284.31
2022-11-08T14:26:22.261Z,100290.38
2022-11-08T14:28:52.005Z,100289.31
2022-11-08T14:31:26.008Z,100281.91
2022-11-08T14:33:56.094Z,100279.88
2022-11-08T14:36:25.891Z,100278.03
2022-11-08T14:39:02.594Z,100287.16
2022-11-08T14:41:32.717Z,100282.63
2022-11-08T14:44:03.316Z,100284.06
2022-11-08T14:46:33.609Z,100286.13
2022-11-08T14:49:12.029Z,100280.88
2022-11-08T14:51:40.238Z,100285.16
2022-11-08T14:54:17.173Z,100283.53
2022-11-08T14:56:45.106Z,100283.34
2022-11-08T14:59:14.331Z,100275.88
2022-11-08T15:01:44.863Z,100262.75
2022-11-08T15:04:16.830Z,100264.75
2022-11-08T15:06:46.250Z,100272.63
2022-11-08T15:09:22.056Z,100281.31
2022-11-08T15:11:53.866Z,100275.19
2022-11-08T15:14:24.304Z,100280.88
2022-11-08T15:16:58.545Z,100286.56
2022-11-08T15:19:36.847Z,100279.47
2022-11-08T15:22:25.391Z,100272.63
2022-11-08T15:25:01.356Z,100253.38
2022-11-08T15:27:29.085Z,100285.56
2022-11-08T15:30:02.118Z,100271.66
2022-11-08T15:32:36.301Z,100272.91
2022-11-08T15:35:07.132Z,100279.38
2022-11-08T15:37:38.362Z,100260.69
2022-11-08T15:40:08.263Z,100272.19
2022-11-08T15:42:38.440Z,100274.22
2022-11-08T15:45:23.069Z,100259.75
2022-11-08T15:47:51.009Z,100260.19
2022-11-08T15:50:21.667Z,100271.09
2022-11-08T15:52:51.757Z,100269.09
2022-11-08T15:55:21.396Z,100262.47
2022-11-08T15:57:50.256Z,100260.91
2022-11-08T16:00:22.163Z,100260.88
2022-11-08T16:02:49.834Z,100264.72
2022-11-08T16:05:21.254Z,100264.53
2022-11-08T16:07:48.945Z,100254.44
2022-11-08T16:10:19.036Z,100246.63
2022-11-08T16:12:48.501Z,100243.84
2022-11-08T16:15:17.819Z,100239.25
2022-11-08T16:17:45.407Z,100248.06
2022-11-08T16:20:24.973Z,100244.06
2022-11-08T16:22:52.836Z,100242.47
2022-11-08T16:25:20.417Z,100244.69
2022-11-08T16:27:53.181Z,100250.09
2022-11-08T16:30:21.221Z,100250.69
2022-11-08T16:32:48.844Z,100250.09
2022-11-08T16:35:16.871Z,100237.84
2022-11-08T16:37:46.757Z,100241.44
2022-11-08T16:40:19.207Z,100244.28
2022-11-08T16:42:47.825Z,100240.19
2022-11-08T16:45:17.017Z,100246.25
2022-11-08T16:47:46.387Z,100245.66
2022-11-08T16:50:17.349Z,100235.00
2022-11-08T16:52:46.810Z,100239.66
2022-11-08T16:55:17.708Z,100241.28
2022-11-08T16:57:45.972Z,100243.34
2022-11-08T17:00:15.960Z,100235.28
2022-11-08T17:02:48.968Z,100228.25
2022-11-08T17:05:19.377Z,100229.25
2022-11-08T17:07:48.422Z,100230.44
2022-11-08T17:10:17.425Z,100226.22
2022-11-08T17:12:45.041Z,100224.81
2022-11-08T17:15:14.173Z,100225.59
2022-11-08T17:17:42.038Z,100215.13
2022-11-08T17:20:12.495Z,100211.31
2022-11-08T17:22:40.316Z,100224.38
2022-11-08T17:25:11.565Z,100222.81
2022-11-08T17:27:39.386Z,100223.25
2022-11-08T17:30:08.449Z,100229.28
2022-11-08T17:32:36.702Z,100226.25
2022-11-08T17:35:05.246Z,100239.56
2022-11-08T17:37:33.443Z,100239.16
2022-11-08T17:40:02.056Z,100240.97
2022-11-08T17:42:34.246Z,100237.13
2022-11-08T17:45:05.560Z,100239.56
2022-11-08T17:47:33.100Z,100237.94
2022-11-08T17:50:00.719Z,100237.53
2022-11-08T17:52:28.328Z,100241.63
2022-11-08T17:54:55.930Z,100238.78
2022-11-08T17:57:23.495Z,100245.84
2022-11-08T17:59:52.472Z,100245.03
2022-11-08T18:02:20.093Z,100249.47
2022-11-08T18:04:47.841Z,100238.19
2022-11-08T18:07:15.646Z,100225.91
2022-11-08T18:09:43.274Z,100229.69
2022-11-08T18:12:10.870Z,100236.31
2022-11-08T18:14:38.820Z,100245.22
2022-11-08T18:17:07.787Z,100240.34
2022-11-08T18:19:35.610Z,100219.00
2022-11-08T18:22:04.517Z,100247.41
2022-11-08T18:24:32.113Z,100232.75
2022-11-08T18:27:00.161Z,100246.03
2022-11-08T18:29:28.257Z,100243.56
2022-11-08T18:31:55.854Z,100233.31
2022-11-08T18:34:24.906Z,100230.94
2022-11-08T18:36:52.501Z,100225.09
2022-11-08T18:39:20.209Z,100223.28
2022-11-08T18:41:47.972Z,100232.75
2022-11-08T18:44:15.517Z,100238.19
2022-11-08T18:46:43.772Z,100244.22
2022-11-08T18:49:11.689Z,100233.16
2022-11-08T18:51:40.626Z,100226.50
2022-11-08T18:54:08.228Z,100240.63
2022-11-08T18:56:35.897Z,100238.59
2022-11-08T18:59:03.525Z,100238.59
2022-11-08T19:01:31.362Z,100246.06
2022-11-08T19:03:58.927Z,100233.16
2022-11-08T19:06:26.537Z,100235.56
2022-11-08T19:08:57.464Z,100244.41
2022-11-08T19:11:25.007Z,100239.97
2022-11-08T19:13:52.563Z,100215.47
2022-11-08T19:16:21.929Z,100240.38
2022-11-08T19:18:49.988Z,100226.47
2022-11-08T19:21:20.033Z,100234.75
2022-11-08T19:23:48.254Z,100218.44
2022-11-08T19:26:19.292Z,100228.31
2022-11-08T19:28:47.868Z,100221.69
2022-11-08T19:31:18.381Z,100216.63
2022-11-08T19:33:46.797Z,100220.88
2022-11-08T19:36:16.990Z,100223.13
2022-11-08T19:38:45.210Z,100229.56
2022-11-08T19:41:14.824Z,100226.31
2022-11-08T19:43:44.640Z,100225.75
2022-11-08T19:46:14.366Z,100231.59
2022-11-08T19:48:43.860Z,100228.78
2022-11-08T19:51:14.635Z,100235.88
2022-11-08T19:53:42.684Z,100231.22
2022-11-08T19:56:12.712Z,100229.81
2022-11-08T19:58:40.429Z,100236.47
2022-11-08T20:01:10.109Z,100237.88
2022-11-08T20:03:38.089Z,100238.28
2022-11-08T20:06:07.004Z,100241.09
2022-11-08T20:08:35.012Z,100236.09
2022-11-08T20:11:10.673Z,100241.31
2022-11-08T20:13:38.319Z,100249.56
2022-11-08T20:16:12.391Z,100241.09
2022-11-08T20:18:40.222Z,100238.91
2022-11-08T20:21:08.918Z,100250.78
2022-11-08T20:23:36.537Z,100241.91
2022-11-08T20:26:06.250Z,100235.66
2022-11-08T20:28:35.890Z,100247.75
2022-11-08T20:31:05.150Z,100254.97
2022-11-08T20:33:35.920Z,100252.34
2022-11-08T20:36:04.834Z,100254.94
2022-11-08T20:38:33.195Z,100256.78
2022-11-08T20:41:01.388Z,100249.72
2022-11-08T20:43:29.144Z,100256.63
2022-11-08T20:46:02.323Z,100273.31
2022-11-08T20:48:30.351Z,100267.25
2022-11-08T20:51:00.348Z,100263.03
2022-11-08T20:53:28.818Z,100273.94
2022-11-08T20:55:57.564Z,100260.84
2022-11-08T20:58:25.774Z,100275.13
2022-11-08T21:00:58.290Z,100265.25
2022-11-08T21:03:27.516Z,100248.31
2022-11-08T21:05:55.791Z,100269.88
2022-11-08T21:11:14.012Z,100279.34
2022-11-08T21:13:43.842Z,100276.13
2022-11-08T21:16:29.285Z,100272.72
2022-11-08T21:18:58.681Z,100273.94
2022-11-08T21:21:27.167Z,100277.94
2022-11-08T21:23:56.232Z,100270.09
2022-11-08T21:26:24.112Z,100278.75
2022-11-08T21:28:52.121Z,100274.50
2022-11-08T21:31:19.836Z,100263.84
2022-11-08T21:33:47.434Z,100275.72
2022-11-08T21:36:17.214Z,100272.91
2022-11-08T21:38:45.461Z,100262.63
2022-11-08T21:41:14.521Z,100272.50
2022-11-08T21:43:43.966Z,100271.72
2022-11-08T21:46:19.459Z,100286.84
2022-11-08T21:48:47.884Z,100299.75
2022-11-08T21:51:16.421Z,100292.88
2022-11-08T21:53:52.778Z,100292.06
2022-11-08T21:56:24.234Z,100296.94
2022-11-08T21:58:52.390Z,100303.38
2022-11-08T22:01:24.122Z,100292.91
2022-11-08T22:03:53.801Z,100301.78
2022-11-08T22:06:21.623Z,100304.59
2022-11-08T22:08:49.448Z,100312.81
2022-11-08T22:11:17.116Z,100316.69
2022-11-08T22:13:46.333Z,100314.47
2022-11-08T22:16:14.014Z,100291.50
2022-11-08T22:21:43.046Z,100302.97
2022-11-08T22:24:12.672Z,100300.75
2022-11-08T22:26:41.008Z,100285.25
2022-11-08T22:29:10.288Z,100299.72
2022-11-08T22:31:38.704Z,100292.50
2022-11-08T22:34:08.263Z,100292.31
2022-11-08T22:36:41.212Z,100302.97
2022-11-08T22:39:12.947Z,100296.72
2022-11-08T22:41:40.554Z,100301.38
2022-11-08T22:44:11.724Z,100289.69
2022-11-08T22:46:41.874Z,100300.34
2022-11-08T22:49:09.717Z,100293.50
2022-11-08T22:51:37.399Z,100301.38
2022-11-08T22:54:05.324Z,100300.78
2022-11-08T22:56:33.170Z,100303.41
2022-11-08T22:59:00.841Z,100293.31
2022-11-08T23:01:28.502Z,100306.19
2022-11-08T23:03:57.449Z,100303.19
2022-11-08T23:06:25.192Z,100279.63
2022-11-08T23:08:52.859Z,100297.53
2022-11-08T23:11:38.001Z,100298.56
2022-11-08T23:14:23.301Z,100298.34
2022-11-08T23:16:50.853Z,100290.88
2022-11-08T23:19:48.139Z,100286.22
2022-11-08T23:22:35.103Z,100297.31
2022-11-08T23:25:02.783Z,100298.13
2022-11-08T23:27:48.216Z,100294.69
2022-11-08T23:30:35.399Z,100297.88
2022-11-08T23:33:04.859Z,100288.19
2022-11-08T23:35:34.041Z,100286.78
2022-11-08T23:38:01.702Z,100284.97
2022-11-08T23:40:47.238Z,100287.13
2022-11-08T23:43:34.748Z,100290.75
2022-11-08T23:46:06.534Z,100293.78
2022-11-08T23:48:34.408Z,100294.81
2022-11-08T23:51:03.462Z,100284.31
2022-11-08T23:53:31.102Z,100294.81
2022-11-08T23:55:58.636Z,100301.63
2022-11-08T23:58:26.479Z,100299.25
